Terminal Aerodrome Forecast
Issued by NWS

Home | Current Version | Previous Version | Text Only | Print | Product List | Glossary On
Versions: 1 2 3 4 5 6 7 8 9 10 11 12 13 14 15 16 17
000
FTUS41 KALY 250500
TAFPSF
TAF
KPSF 250526Z 2506/2606 31005KT P6SM SKC
     FM251200 VRB05KT P6SM SCT100 BKN200
     FM251500 24007KT P6SM BKN100 OVC200
     FM260000 17008KT P6SM OVC070 PROB30 2602/2606 6SM -SHRA OVC035=

USA.gov is the U.S. government's official web portal to all federal, state and local government web resources and services.